createdAt,value
2019-05-06T00:00:13.946Z,53.70
2019-05-06T00:02:54.792Z,53.70
2019-05-06T00:05:35.381Z,53.70
2019-05-06T00:08:16.426Z,53.70
2019-05-06T00:10:58.003Z,53.70
2019-05-06T00:13:39.338Z,53.70
2019-05-06T00:16:20.847Z,53.70
2019-05-06T00:19:04.558Z,53.80
2019-05-06T00:21:44.823Z,53.60
2019-05-06T00:24:29.219Z,53.70
2019-05-06T00:30:05.370Z,53.60
2019-05-06T00:32:46.085Z,53.70
2019-05-06T00:35:27.750Z,53.70
2019-05-06T00:38:08.626Z,53.60
2019-05-06T00:40:51.122Z,53.70
2019-05-06T00:43:31.876Z,53.70
2019-05-06T00:46:13.869Z,53.70
2019-05-06T00:48:55.320Z,53.70
2019-05-06T00:51:36.605Z,53.70
2019-05-06T00:54:20.798Z,53.70
2019-05-06T00:57:03.630Z,53.70
2019-05-06T00:59:45.243Z,53.70
2019-05-06T01:02:26.855Z,53.70
2019-05-06T01:05:07.547Z,53.70
2019-05-06T01:07:48.655Z,53.70
2019-05-06T01:10:30.082Z,53.70
2019-05-06T01:13:30.466Z,53.70
2019-05-06T01:16:15.615Z,53.60
2019-05-06T01:18:56.043Z,53.60
2019-05-06T01:21:36.718Z,53.60
2019-05-06T01:24:18.255Z,53.70
2019-05-06T01:26:59.767Z,53.60
2019-05-06T01:29:40.452Z,53.60
2019-05-06T01:32:23.528Z,53.60
2019-05-06T01:35:04.748Z,53.60
2019-05-06T01:37:47.350Z,53.60
2019-05-06T01:43:44.085Z,53.60
2019-05-06T01:46:25.546Z,53.60
2019-05-06T01:49:07.079Z,53.60
2019-05-06T01:51:47.603Z,53.70
2019-05-06T01:54:28.431Z,53.60
2019-05-06T01:57:09.114Z,53.70
2019-05-06T01:59:50.772Z,53.60
2019-05-06T02:02:34.194Z,53.60
2019-05-06T02:05:14.666Z,53.70
2019-05-06T02:07:56.103Z,53.60
2019-05-06T02:10:38.179Z,53.60
2019-05-06T02:13:18.908Z,53.60
2019-05-06T02:15:59.584Z,53.60
2019-05-06T02:18:40.264Z,53.60
2019-05-06T02:21:40.392Z,53.60
2019-05-06T02:24:24.621Z,53.60
2019-05-06T02:27:06.637Z,53.60
2019-05-06T02:29:54.338Z,53.60
2019-05-06T02:36:02.691Z,53.80
2019-05-06T02:38:50.426Z,53.60
2019-05-06T02:41:27.039Z,53.60
2019-05-06T02:44:10.239Z,53.60
2019-05-06T02:46:55.125Z,53.60
2019-05-06T02:49:40.322Z,53.60
2019-05-06T02:52:22.957Z,53.60
2019-05-06T02:55:06.379Z,53.60
2019-05-06T02:57:47.521Z,53.60
2019-05-06T03:00:28.328Z,53.60
2019-05-06T03:03:09.393Z,53.60
2019-05-06T03:05:53.267Z,53.60
2019-05-06T03:08:33.120Z,53.60
2019-05-06T03:11:16.764Z,53.60
2019-05-06T03:13:58.241Z,53.60
2019-05-06T03:16:38.855Z,53.50
2019-05-06T03:19:19.843Z,53.50
2019-05-06T03:22:19.604Z,53.50
2019-05-06T03:27:59.481Z,53.50
2019-05-06T03:30:45.631Z,53.60
2019-05-06T03:33:56.497Z,53.50
2019-05-06T03:36:16.688Z,53.50
2019-05-06T03:38:49.159Z,53.50
2019-05-06T03:41:33.617Z,53.50
2019-05-06T03:44:16.589Z,53.50
2019-05-06T03:47:15.242Z,53.50
2019-05-06T03:49:56.344Z,53.60
2019-05-06T03:52:37.046Z,53.60
2019-05-06T03:55:17.924Z,53.50
2019-05-06T03:57:59.471Z,53.50
2019-05-06T04:00:40.237Z,53.60
2019-05-06T04:03:28.320Z,53.60
2019-05-06T04:06:04.689Z,53.50
2019-05-06T04:08:45.820Z,53.50
2019-05-06T04:11:27.323Z,53.50
2019-05-06T04:14:08.746Z,53.50
2019-05-06T04:17:08.278Z,53.50
2019-05-06T04:19:54.232Z,53.50
2019-05-06T04:25:52.539Z,54.10
2019-05-06T04:28:34.409Z,53.50
2019-05-06T04:31:15.854Z,53.50
2019-05-06T04:34:10.000Z,53.50
2019-05-06T04:36:40.395Z,53.50
2019-05-06T04:39:23.458Z,53.50
2019-05-06T04:42:04.458Z,53.40
2019-05-06T04:44:45.315Z,53.40
2019-05-06T04:47:26.698Z,53.50
2019-05-06T04:50:08.307Z,53.60
2019-05-06T04:55:43.682Z,53.40
2019-05-06T04:58:25.805Z,53.40
2019-05-06T05:01:11.603Z,53.40
2019-05-06T05:03:50.049Z,53.40
2019-05-06T05:06:32.853Z,53.40
2019-05-06T05:09:17.092Z,53.40
2019-05-06T05:12:02.501Z,53.40
2019-05-06T05:15:03.291Z,53.40
2019-05-06T05:17:48.729Z,53.40
2019-05-06T05:20:37.722Z,53.40
2019-05-06T05:23:12.817Z,53.30
2019-05-06T05:25:54.168Z,53.40
2019-05-06T05:28:34.929Z,53.40
2019-05-06T05:31:15.575Z,53.40
2019-05-06T05:33:57.110Z,53.40
2019-05-06T05:36:37.919Z,53.40
2019-05-06T05:39:19.706Z,53.40
2019-05-06T05:45:09.188Z,53.40
2019-05-06T05:47:52.180Z,53.40
2019-05-06T05:50:36.282Z,53.40
2019-05-06T05:53:17.306Z,53.40
2019-05-06T05:55:58.415Z,53.40
2019-05-06T05:58:39.200Z,53.40
2019-05-06T06:01:23.107Z,53.40
2019-05-06T06:04:03.369Z,53.40
2019-05-06T06:06:44.831Z,53.40
2019-05-06T06:09:29.803Z,53.40
2019-05-06T06:12:12.038Z,53.40
2019-05-06T06:15:12.700Z,53.40
2019-05-06T06:18:13.075Z,53.40
2019-05-06T06:21:20.788Z,53.40
2019-05-06T06:23:57.970Z,53.40
2019-05-06T06:26:38.635Z,53.40
2019-05-06T06:29:20.115Z,53.40
2019-05-06T06:38:38.405Z,53.40
2019-05-06T06:41:19.464Z,53.40
2019-05-06T06:44:03.561Z,53.40
2019-05-06T06:46:44.435Z,53.40
2019-05-06T06:49:25.360Z,53.30
2019-05-06T06:52:11.157Z,53.40
2019-05-06T06:54:49.502Z,53.30
2019-05-06T06:57:52.746Z,53.40
2019-05-06T07:00:53.288Z,53.40
2019-05-06T07:03:38.826Z,53.30
2019-05-06T07:09:13.561Z,53.30
2019-05-06T07:11:54.529Z,53.30
2019-05-06T07:14:36.190Z,53.40
2019-05-06T07:17:17.518Z,53.30
2019-05-06T07:20:02.951Z,53.30
2019-05-06T07:22:43.891Z,53.30
2019-05-06T07:25:25.426Z,53.30
2019-05-06T07:28:06.347Z,53.30
2019-05-06T07:30:47.196Z,53.30
2019-05-06T07:33:28.032Z,53.30
2019-05-06T07:36:08.652Z,53.30
2019-05-06T07:38:52.866Z,53.30
2019-05-06T07:44:53.355Z,53.30
2019-05-06T07:47:53.832Z,53.30
2019-05-06T07:50:35.259Z,53.30
2019-05-06T07:53:16.692Z,53.30
2019-05-06T07:55:58.180Z,53.30
2019-05-06T07:58:38.883Z,53.30
2019-05-06T08:01:23.438Z,53.30
2019-05-06T08:04:02.780Z,53.30
2019-05-06T08:06:44.369Z,53.30
2019-05-06T08:09:25.727Z,53.40
2019-05-06T08:12:07.092Z,53.30
2019-05-06T08:14:47.787Z,53.30
2019-05-06T08:20:25.112Z,53.30
2019-05-06T08:23:12.622Z,53.40
2019-05-06T08:26:09.083Z,53.40
2019-05-06T08:28:41.447Z,53.40
2019-05-06T08:31:22.384Z,53.40
2019-05-06T08:34:03.777Z,53.40
2019-05-06T08:37:04.037Z,53.40
2019-05-06T08:39:46.133Z,53.30
2019-05-06T08:42:27.227Z,53.40
2019-05-06T08:45:08.523Z,53.30
2019-05-06T08:47:52.241Z,53.30
2019-05-06T08:53:49.868Z,53.30
2019-05-06T08:56:32.083Z,53.20
2019-05-06T08:59:14.012Z,53.20
2019-05-06T09:01:55.884Z,53.20
2019-05-06T09:04:37.213Z,53.10
2019-05-06T09:07:18.023Z,53.10
2019-05-06T09:09:59.553Z,53.00
2019-05-06T09:12:42.408Z,53.00
2019-05-06T09:15:23.229Z,53.00
2019-05-06T09:20:43.265Z,53.00
2019-05-06T09:23:27.420Z,53.00
2019-05-06T09:26:08.885Z,52.90
2019-05-06T09:32:08.777Z,52.90
2019-05-06T09:34:52.775Z,52.90
2019-05-06T09:37:34.539Z,52.90
2019-05-06T09:40:15.247Z,53.00
2019-05-06T09:42:56.135Z,53.00
2019-05-06T09:45:36.997Z,53.00
2019-05-06T09:51:33.862Z,52.90
2019-05-06T09:54:36.767Z,52.90
2019-05-06T10:00:17.830Z,52.90
2019-05-06T10:02:58.854Z,52.90
2019-05-06T10:05:42.377Z,52.90
2019-05-06T10:08:22.921Z,52.90
2019-05-06T10:11:04.396Z,52.90
2019-05-06T10:13:45.082Z,52.90
2019-05-06T10:16:26.597Z,52.90
2019-05-06T10:19:07.960Z,52.90
2019-05-06T10:21:49.252Z,52.80
2019-05-06T10:24:32.247Z,52.90
2019-05-06T10:27:12.583Z,52.90
2019-05-06T10:33:16.608Z,52.90
2019-05-06T10:36:02.771Z,52.90
2019-05-06T10:38:44.131Z,52.90
2019-05-06T10:41:25.637Z,52.90
2019-05-06T10:44:06.512Z,52.90
2019-05-06T10:46:47.193Z,52.90
2019-05-06T10:49:28.768Z,52.90
2019-05-06T10:55:12.832Z,52.90
2019-05-06T10:57:54.046Z,52.90
2019-05-06T11:00:35.557Z,53.00
2019-05-06T11:03:18.851Z,52.90
2019-05-06T11:05:59.708Z,52.90
2019-05-06T11:08:42.068Z,52.90
2019-05-06T11:11:32.548Z,52.90
2019-05-06T11:14:05.467Z,52.90
2019-05-06T11:16:46.443Z,52.80
2019-05-06T11:19:27.840Z,53.00
2019-05-06T11:22:09.267Z,52.90
2019-05-06T11:24:50.911Z,53.00
2019-05-06T11:27:34.040Z,53.00
2019-05-06T11:36:46.386Z,53.00
2019-05-06T11:39:27.736Z,53.00
2019-05-06T11:42:25.113Z,53.00
2019-05-06T11:44:53.060Z,53.00
2019-05-06T11:47:34.549Z,53.00
2019-05-06T11:50:15.509Z,53.00
2019-05-06T11:52:56.942Z,53.00
2019-05-06T11:55:38.857Z,53.00
2019-05-06T11:58:42.415Z,53.00
2019-05-06T12:01:25.886Z,53.00
2019-05-06T12:04:06.802Z,53.00
2019-05-06T12:06:48.123Z,53.00
2019-05-06T12:09:29.359Z,53.00
2019-05-06T12:12:12.829Z,53.00
2019-05-06T12:14:53.504Z,53.00
2019-05-06T12:17:35.138Z,53.00
2019-05-06T12:20:16.754Z,53.00
2019-05-06T12:22:57.911Z,53.00
2019-05-06T12:25:38.724Z,53.00
2019-05-06T12:28:20.189Z,53.00
2019-05-06T12:31:01.709Z,52.90
2019-05-06T12:33:47.284Z,53.00
2019-05-06T12:36:28.191Z,53.00
2019-05-06T12:39:27.828Z,53.10
2019-05-06T12:42:33.732Z,53.10
2019-05-06T12:45:33.800Z,53.10
2019-05-06T12:48:33.618Z,53.00
2019-05-06T12:51:14.605Z,53.10
2019-05-06T12:53:55.662Z,53.00
2019-05-06T12:56:37.375Z,53.00
2019-05-06T12:59:18.957Z,53.10
2019-05-06T13:02:02.673Z,53.10
2019-05-06T13:04:54.535Z,53.00
2019-05-06T13:10:22.777Z,53.00
2019-05-06T13:13:05.266Z,53.00
2019-05-06T13:15:45.936Z,53.00
2019-05-06T13:18:27.340Z,53.10
2019-05-06T13:21:08.688Z,53.00
2019-05-06T13:23:56.260Z,53.00
2019-05-06T13:26:37.086Z,53.00
2019-05-06T13:29:23.265Z,53.00
2019-05-06T13:32:04.024Z,53.00
2019-05-06T13:34:45.612Z,53.00
2019-05-06T13:37:26.744Z,53.00
2019-05-06T13:40:08.050Z,53.00
2019-05-06T13:43:07.825Z,53.00
2019-05-06T13:45:52.541Z,53.00
2019-05-06T13:48:38.208Z,53.00
2019-05-06T13:51:23.003Z,52.90
2019-05-06T13:54:04.540Z,52.90
2019-05-06T13:56:48.804Z,53.00
2019-05-06T13:59:30.481Z,52.90
2019-05-06T14:02:33.519Z,53.00
2019-05-06T14:05:14.010Z,52.90
2019-05-06T14:07:55.596Z,52.90
2019-05-06T14:10:36.355Z,52.90
2019-05-06T14:13:17.714Z,52.90
2019-05-06T14:15:58.663Z,52.80
2019-05-06T14:18:42.597Z,52.80
2019-05-06T14:21:22.961Z,52.80
2019-05-06T14:24:04.497Z,52.80
2019-05-06T14:26:57.001Z,52.80
2019-05-06T14:32:32.997Z,52.80
2019-05-06T14:35:14.030Z,52.80
2019-05-06T14:37:55.546Z,52.70
2019-05-06T14:40:55.813Z,52.80
2019-05-06T14:43:37.397Z,52.80
2019-05-06T14:46:19.159Z,52.70
2019-05-06T14:49:04.214Z,52.80
2019-05-06T14:51:43.125Z,52.80
2019-05-06T14:54:25.146Z,52.80
2019-05-06T14:57:12.277Z,52.80
2019-05-06T14:59:55.591Z,52.80
2019-05-06T15:02:37.180Z,52.80
2019-05-06T15:05:18.551Z,52.80
2019-05-06T15:07:59.523Z,52.80
2019-05-06T15:10:42.721Z,52.80
2019-05-06T15:13:24.392Z,52.80
2019-05-06T15:16:06.186Z,52.80
2019-05-06T15:18:47.452Z,52.80
2019-05-06T15:21:37.459Z,52.80
2019-05-06T15:24:13.781Z,52.90
2019-05-06T15:26:54.527Z,52.90
2019-05-06T15:29:35.348Z,52.90
2019-05-06T15:35:44.311Z,52.90
2019-05-06T15:38:27.708Z,52.90
2019-05-06T15:41:09.005Z,52.90
2019-05-06T15:43:50.281Z,52.90
2019-05-06T15:46:32.284Z,53.00
2019-05-06T15:49:13.343Z,52.90
2019-05-06T15:51:54.063Z,53.00
2019-05-06T15:54:35.446Z,53.00
2019-05-06T15:57:16.260Z,53.00
2019-05-06T15:59:57.629Z,53.00
2019-05-06T16:02:38.394Z,53.10
2019-05-06T16:05:25.778Z,53.00
2019-05-06T16:08:03.558Z,53.00
2019-05-06T16:10:52.554Z,53.00
2019-05-06T16:13:26.546Z,53.00
2019-05-06T16:16:07.263Z,53.00
2019-05-06T16:18:48.903Z,53.10
2019-05-06T16:21:29.768Z,52.90
2019-05-06T16:24:16.153Z,53.00
2019-05-06T16:26:57.292Z,53.00
2019-05-06T16:29:38.686Z,53.00
2019-05-06T16:32:21.835Z,53.00
2019-05-06T16:35:02.793Z,53.00
2019-05-06T16:37:43.446Z,53.10
2019-05-06T16:40:24.176Z,53.10
2019-05-06T16:43:04.748Z,53.10
2019-05-06T16:45:46.089Z,53.10
2019-05-06T16:48:26.763Z,53.10
2019-05-06T16:51:07.381Z,53.10
2019-05-06T16:53:48.308Z,53.10
2019-05-06T16:56:52.842Z,53.10
2019-05-06T16:59:34.445Z,53.10
2019-05-06T17:02:19.894Z,53.20
2019-05-06T17:05:26.406Z,53.20
2019-05-06T17:08:07.475Z,53.20
2019-05-06T17:10:48.125Z,53.20
2019-05-06T17:13:29.629Z,53.20
2019-05-06T17:16:10.498Z,53.10
2019-05-06T17:18:55.988Z,53.10
2019-05-06T17:21:33.890Z,53.10
2019-05-06T17:24:15.386Z,53.10
2019-05-06T17:26:56.575Z,53.10
2019-05-06T17:32:49.693Z,53.20
2019-05-06T17:35:32.783Z,53.20
2019-05-06T17:38:17.138Z,53.20
2019-05-06T17:40:58.376Z,53.20
2019-05-06T17:43:41.093Z,53.20
2019-05-06T17:46:25.286Z,53.20
2019-05-06T17:55:14.301Z,53.30
2019-05-06T17:57:55.112Z,53.30
2019-05-06T18:00:35.836Z,53.30
2019-05-06T18:03:17.432Z,53.30
2019-05-06T18:05:58.321Z,53.30
2019-05-06T18:08:39.793Z,53.30
2019-05-06T18:11:22.248Z,53.20
2019-05-06T18:14:04.079Z,53.20
2019-05-06T18:16:44.938Z,53.20
2019-05-06T18:19:25.587Z,53.30
2019-05-06T18:22:06.398Z,53.30
2019-05-06T18:24:47.211Z,53.20
2019-05-06T18:27:27.944Z,53.30
2019-05-06T18:30:19.400Z,53.30
2019-05-06T18:32:52.061Z,53.30
2019-05-06T18:35:33.107Z,53.20
2019-05-06T18:38:14.729Z,53.40
2019-05-06T18:40:56.114Z,53.30
2019-05-06T18:43:38.978Z,53.40
2019-05-06T18:46:20.135Z,53.40
2019-05-06T18:49:02.555Z,53.40
2019-05-06T18:51:44.099Z,53.40
2019-05-06T18:54:25.904Z,53.40
2019-05-06T18:57:07.074Z,53.40
2019-05-06T18:59:48.257Z,53.40
2019-05-06T19:02:29.394Z,53.40
2019-05-06T19:05:35.347Z,53.30
2019-05-06T19:08:34.942Z,53.40
2019-05-06T19:11:16.842Z,53.40
2019-05-06T19:13:58.969Z,53.30
2019-05-06T19:16:49.860Z,53.30
2019-05-06T19:19:23.383Z,53.40
2019-05-06T19:22:04.846Z,53.40
2019-05-06T19:24:45.910Z,53.40
2019-05-06T19:27:27.448Z,53.40
2019-05-06T19:30:08.229Z,53.40
2019-05-06T19:32:49.390Z,53.40
2019-05-06T19:35:32.343Z,53.40
2019-05-06T19:38:12.655Z,53.40
2019-05-06T19:40:54.203Z,53.40
2019-05-06T19:43:35.118Z,53.40
2019-05-06T19:46:16.628Z,53.50
2019-05-06T19:48:57.411Z,53.40
2019-05-06T19:51:38.215Z,53.50
2019-05-06T19:54:19.740Z,53.50
2019-05-06T19:57:02.360Z,53.50
2019-05-06T19:59:42.922Z,53.50
2019-05-06T20:02:25.862Z,53.40
2019-05-06T20:05:12.127Z,53.40
2019-05-06T20:08:13.377Z,53.40
2019-05-06T20:13:57.228Z,54.00
2019-05-06T20:16:38.356Z,53.50
2019-05-06T20:19:29.695Z,53.50
2019-05-06T20:22:02.856Z,53.50
2019-05-06T20:24:44.225Z,53.50
2019-05-06T20:27:25.858Z,53.50
2019-05-06T20:30:06.879Z,53.50
2019-05-06T20:32:48.425Z,53.50
2019-05-06T20:35:29.068Z,53.50
2019-05-06T20:38:12.322Z,53.50
2019-05-06T20:40:53.884Z,53.40
2019-05-06T20:43:34.847Z,53.60
2019-05-06T20:46:16.442Z,53.60
2019-05-06T20:48:57.868Z,53.50
2019-05-06T20:51:38.543Z,53.50
2019-05-06T20:54:19.275Z,53.50
2019-05-06T20:57:02.456Z,53.50
2019-05-06T20:59:42.706Z,53.50
2019-05-06T21:02:25.875Z,53.50
2019-05-06T21:05:06.565Z,53.40
2019-05-06T21:07:47.300Z,53.50
2019-05-06T21:10:28.000Z,53.50
2019-05-06T21:13:09.240Z,53.50
2019-05-06T21:15:50.578Z,53.50
2019-05-06T21:18:32.469Z,53.50
2019-05-06T21:21:13.649Z,53.50
2019-05-06T21:23:54.687Z,53.50
2019-05-06T21:26:35.340Z,53.50
2019-05-06T21:29:16.008Z,53.50
2019-05-06T21:31:57.432Z,53.40
2019-05-06T21:34:38.974Z,53.50
2019-05-06T21:37:20.361Z,53.50
2019-05-06T21:40:02.707Z,53.50
2019-05-06T21:42:43.597Z,53.50
2019-05-06T21:45:25.174Z,53.50
2019-05-06T21:48:06.666Z,53.50
2019-05-06T21:50:48.287Z,53.50
2019-05-06T21:53:29.424Z,53.50
2019-05-06T21:56:12.935Z,53.50
2019-05-06T21:58:53.356Z,53.50
2019-05-06T22:01:34.309Z,53.50
2019-05-06T22:04:15.531Z,53.50
2019-05-06T22:06:56.234Z,53.50
2019-05-06T22:09:37.177Z,53.50
2019-05-06T22:12:18.755Z,53.50
2019-05-06T22:15:00.286Z,53.50
2019-05-06T22:17:42.943Z,53.50
2019-05-06T22:20:23.977Z,53.50
2019-05-06T22:23:04.882Z,53.70
2019-05-06T22:25:45.548Z,53.40
2019-05-06T22:28:26.462Z,53.40
2019-05-06T22:31:07.165Z,53.40
2019-05-06T22:33:48.650Z,53.40
2019-05-06T22:36:29.383Z,53.40
2019-05-06T22:39:11.999Z,53.40
2019-05-06T22:41:52.820Z,53.40
2019-05-06T22:44:33.643Z,53.40
2019-05-06T22:47:14.996Z,53.40
2019-05-06T22:49:56.041Z,53.40
2019-05-06T22:52:37.593Z,53.50
2019-05-06T22:55:18.464Z,53.50
2019-05-06T22:57:59.287Z,53.40
2019-05-06T23:00:42.650Z,53.40
2019-05-06T23:03:24.383Z,53.50
2019-05-06T23:06:05.255Z,53.40
2019-05-06T23:08:46.056Z,53.50
2019-05-06T23:11:26.620Z,53.50
2019-05-06T23:14:07.588Z,53.50
2019-05-06T23:16:48.361Z,53.50
2019-05-06T23:19:28.992Z,53.50
2019-05-06T23:22:12.034Z,53.40
2019-05-06T23:24:54.141Z,53.50
2019-05-06T23:27:35.179Z,53.50
2019-05-06T23:30:15.991Z,53.40
2019-05-06T23:32:56.687Z,53.40
2019-05-06T23:35:37.420Z,53.50
2019-05-06T23:38:18.900Z,53.50
2019-05-06T23:41:00.493Z,53.50
2019-05-06T23:43:42.717Z,53.40
2019-05-06T23:46:24.209Z,53.50
2019-05-06T23:49:05.096Z,53.50
2019-05-06T23:51:46.026Z,53.40
2019-05-06T23:54:26.683Z,53.50
2019-05-06T23:57:07.467Z,53.50
2019-05-06T23:59:48.875Z,53.40
